Tumtum, Washington
Current Conditions -  °F | °C
As of 7:53 AM on Thursday 30 Oct 2014 (Local Time) from KDEW Reporting Station
Overcast Overcast  
Wind Chill: 41°   Ceiling: 6000
Heat Index: 46°   Visibility: 10mi
Dew Point: 42°   Wind: 12mph
Humidity: 86%   Direction: 30°NNE
Pressure: 30.14"   Gusts: NA
Location:  47.86°N, 117.68°W
Report Text: KDEW 301453Z AUTO 03010KT 10SM OVC060 08/06 A3014 RMK AO2 SLP214 T00780056 55008
Loading
Personal Weather Stations






























Interactive Weather Map
Tropical Storm Tracking
New forecast layout! Learn more

10-Day Weather Forecast

Advertisements
Track Severe Weather on mobile